sensor_id;sensor_type;location;lat;lon;timestamp;P1;durP1;ratioP1;P2;durP2;ratioP2
83059;SDS011;72884;44.366;3.426;2023-11-22T00:02:21;0.40;;;0.22;;
83059;SDS011;72884;44.366;3.426;2023-11-22T00:04:46;0.10;;;0.10;;
83059;SDS011;72884;44.366;3.426;2023-11-22T00:07:12;0.30;;;0.20;;
83059;SDS011;72884;44.366;3.426;2023-11-22T00:09:37;0.47;;;0.20;;
83059;SDS011;72884;44.366;3.426;2023-11-22T00:12:03;0.20;;;0.20;;
83059;SDS011;72884;44.366;3.426;2023-11-22T00:14:28;0.25;;;0.25;;
83059;SDS011;72884;44.366;3.426;2023-11-22T00:16:54;0.32;;;0.20;;
83059;SDS011;72884;44.366;3.426;2023-11-22T00:19:19;1.13;;;0.30;;
83059;SDS011;72884;44.366;3.426;2023-11-22T00:21:47;0.30;;;0.20;;
83059;SDS011;72884;44.366;3.426;2023-11-22T00:24:13;0.15;;;0.15;;
83059;SDS011;72884;44.366;3.426;2023-11-22T00:26:38;0.30;;;0.30;;
83059;SDS011;72884;44.366;3.426;2023-11-22T00:29:04;0.30;;;0.20;;
83059;SDS011;72884;44.366;3.426;2023-11-22T00:31:30;0.20;;;0.20;;
83059;SDS011;72884;44.366;3.426;2023-11-22T00:33:55;0.17;;;0.17;;
83059;SDS011;72884;44.366;3.426;2023-11-22T00:36:21;0.35;;;0.17;;
83059;SDS011;72884;44.366;3.426;2023-11-22T00:38:46;0.32;;;0.30;;
83059;SDS011;72884;44.366;3.426;2023-11-22T00:41:12;1.08;;;0.20;;
83059;SDS011;72884;44.366;3.426;2023-11-22T00:43:39;0.32;;;0.20;;
83059;SDS011;72884;44.366;3.426;2023-11-22T00:46:05;0.75;;;0.20;;
83059;SDS011;72884;44.366;3.426;2023-11-22T00:48:31;0.20;;;0.20;;
83059;SDS011;72884;44.366;3.426;2023-11-22T00:50:56;0.20;;;0.20;;
83059;SDS011;72884;44.366;3.426;2023-11-22T00:53:22;0.10;;;0.10;;
83059;SDS011;72884;44.366;3.426;2023-11-22T00:55:48;0.85;;;0.30;;
83059;SDS011;72884;44.366;3.426;2023-11-22T00:58:13;0.20;;;0.20;;
83059;SDS011;72884;44.366;3.426;2023-11-22T01:00:39;1.27;;;0.45;;
83059;SDS011;72884;44.366;3.426;2023-11-22T01:03:04;0.47;;;0.20;;
83059;SDS011;72884;44.366;3.426;2023-11-22T01:05:30;0.10;;;0.10;;
83059;SDS011;72884;44.366;3.426;2023-11-22T01:07:55;0.20;;;0.20;;
83059;SDS011;72884;44.366;3.426;2023-11-22T01:10:21;0.32;;;0.20;;
83059;SDS011;72884;44.366;3.426;2023-11-22T01:12:46;0.55;;;0.20;;
83059;SDS011;72884;44.366;3.426;2023-11-22T01:15:11;0.17;;;0.17;;
83059;SDS011;72884;44.366;3.426;2023-11-22T01:17:37;0.20;;;0.20;;
83059;SDS011;72884;44.366;3.426;2023-11-22T01:20:02;0.20;;;0.20;;
83059;SDS011;72884;44.366;3.426;2023-11-22T01:22:28;0.20;;;0.10;;
83059;SDS011;72884;44.366;3.426;2023-11-22T01:24:54;0.35;;;0.30;;
83059;SDS011;72884;44.366;3.426;2023-11-22T01:27:19;0.25;;;0.20;;
83059;SDS011;72884;44.366;3.426;2023-11-22T01:29:44;0.28;;;0.20;;
83059;SDS011;72884;44.366;3.426;2023-11-22T01:32:10;0.25;;;0.10;;
83059;SDS011;72884;44.366;3.426;2023-11-22T01:34:36;2.17;;;0.15;;
83059;SDS011;72884;44.366;3.426;2023-11-22T01:37:01;0.20;;;0.20;;
83059;SDS011;72884;44.366;3.426;2023-11-22T01:39:28;0.22;;;0.20;;
83059;SDS011;72884;44.366;3.426;2023-11-22T01:41:53;0.20;;;0.13;;
83059;SDS011;72884;44.366;3.426;2023-11-22T01:44:19;0.20;;;0.20;;
83059;SDS011;72884;44.366;3.426;2023-11-22T01:46:44;0.70;;;0.20;;
83059;SDS011;72884;44.366;3.426;2023-11-22T01:49:10;0.75;;;0.20;;
83059;SDS011;72884;44.366;3.426;2023-11-22T01:51:39;0.20;;;0.20;;
83059;SDS011;72884;44.366;3.426;2023-11-22T01:54:06;0.13;;;0.13;;
83059;SDS011;72884;44.366;3.426;2023-11-22T01:56:32;0.10;;;0.10;;
83059;SDS011;72884;44.366;3.426;2023-11-22T01:58:58;0.20;;;0.20;;
83059;SDS011;72884;44.366;3.426;2023-11-22T02:01:25;0.20;;;0.10;;
83059;SDS011;72884;44.366;3.426;2023-11-22T02:03:51;0.13;;;0.13;;
83059;SDS011;72884;44.366;3.426;2023-11-22T02:06:18;0.28;;;0.20;;
83059;SDS011;72884;44.366;3.426;2023-11-22T02:08:44;0.20;;;0.10;;
83059;SDS011;72884;44.366;3.426;2023-11-22T02:11:10;0.10;;;0.10;;
83059;SDS011;72884;44.366;3.426;2023-11-22T02:13:35;0.10;;;0.10;;
83059;SDS011;72884;44.366;3.426;2023-11-22T02:16:01;0.20;;;0.20;;
83059;SDS011;72884;44.366;3.426;2023-11-22T02:18:27;0.52;;;0.20;;
83059;SDS011;72884;44.366;3.426;2023-11-22T02:20:53;0.20;;;0.17;;
83059;SDS011;72884;44.366;3.426;2023-11-22T02:23:18;0.52;;;0.30;;
83059;SDS011;72884;44.366;3.426;2023-11-22T02:25:44;0.13;;;0.13;;
83059;SDS011;72884;44.366;3.426;2023-11-22T02:28:10;0.10;;;0.10;;
83059;SDS011;72884;44.366;3.426;2023-11-22T02:30:37;0.13;;;0.13;;
83059;SDS011;72884;44.366;3.426;2023-11-22T02:33:02;0.30;;;0.10;;
83059;SDS011;72884;44.366;3.426;2023-11-22T02:35:28;1.17;;;0.20;;
83059;SDS011;72884;44.366;3.426;2023-11-22T02:37:53;0.15;;;0.10;;
83059;SDS011;72884;44.366;3.426;2023-11-22T02:40:19;0.20;;;0.20;;
83059;SDS011;72884;44.366;3.426;2023-11-22T02:42:48;0.20;;;0.20;;
83059;SDS011;72884;44.366;3.426;2023-11-22T02:45:15;0.25;;;0.25;;
83059;SDS011;72884;44.366;3.426;2023-11-22T02:47:41;0.10;;;0.10;;
83059;SDS011;72884;44.366;3.426;2023-11-22T02:50:08;0.40;;;0.30;;
83059;SDS011;72884;44.366;3.426;2023-11-22T02:52:34;0.22;;;0.20;;
83059;SDS011;72884;44.366;3.426;2023-11-22T02:54:59;0.30;;;0.20;;
83059;SDS011;72884;44.366;3.426;2023-11-22T02:57:25;0.30;;;0.10;;
83059;SDS011;72884;44.366;3.426;2023-11-22T02:59:51;0.15;;;0.15;;
83059;SDS011;72884;44.366;3.426;2023-11-22T03:02:17;0.17;;;0.10;;
83059;SDS011;72884;44.366;3.426;2023-11-22T03:04:43;0.10;;;0.10;;
83059;SDS011;72884;44.366;3.426;2023-11-22T03:07:08;0.10;;;0.10;;
83059;SDS011;72884;44.366;3.426;2023-11-22T03:09:34;0.52;;;0.20;;
83059;SDS011;72884;44.366;3.426;2023-11-22T03:12:00;0.20;;;0.20;;
83059;SDS011;72884;44.366;3.426;2023-11-22T03:14:27;0.20;;;0.20;;
83059;SDS011;72884;44.366;3.426;2023-11-22T03:16:53;0.22;;;0.22;;
83059;SDS011;72884;44.366;3.426;2023-11-22T03:19:18;0.10;;;0.10;;
83059;SDS011;72884;44.366;3.426;2023-11-22T03:21:44;0.30;;;0.30;;
83059;SDS011;72884;44.366;3.426;2023-11-22T03:24:10;0.20;;;0.20;;
83059;SDS011;72884;44.366;3.426;2023-11-22T03:26:36;0.20;;;0.20;;
83059;SDS011;72884;44.366;3.426;2023-11-22T03:29:02;0.32;;;0.10;;
83059;SDS011;72884;44.366;3.426;2023-11-22T03:31:27;0.30;;;0.20;;
83059;SDS011;72884;44.366;3.426;2023-11-22T03:33:53;0.55;;;0.30;;
83059;SDS011;72884;44.366;3.426;2023-11-22T03:36:19;0.30;;;0.28;;
83059;SDS011;72884;44.366;3.426;2023-11-22T03:38:45;0.20;;;0.20;;
83059;SDS011;72884;44.366;3.426;2023-11-22T03:41:11;0.10;;;0.10;;
83059;SDS011;72884;44.366;3.426;2023-11-22T03:43:36;0.10;;;0.10;;
83059;SDS011;72884;44.366;3.426;2023-11-22T03:46:02;0.13;;;0.13;;
83059;SDS011;72884;44.366;3.426;2023-11-22T03:48:29;0.10;;;0.10;;
83059;SDS011;72884;44.366;3.426;2023-11-22T03:50:54;0.17;;;0.17;;
83059;SDS011;72884;44.366;3.426;2023-11-22T03:53:20;0.20;;;0.20;;
83059;SDS011;72884;44.366;3.426;2023-11-22T03:55:46;0.15;;;0.15;;
83059;SDS011;72884;44.366;3.426;2023-11-22T03:58:13;0.10;;;0.10;;
83059;SDS011;72884;44.366;3.426;2023-11-22T04:00:38;0.13;;;0.13;;
83059;SDS011;72884;44.366;3.426;2023-11-22T04:03:03;0.20;;;0.20;;
83059;SDS011;72884;44.366;3.426;2023-11-22T04:05:29;0.10;;;0.10;;
83059;SDS011;72884;44.366;3.426;2023-11-22T04:07:54;0.20;;;0.20;;
83059;SDS011;72884;44.366;3.426;2023-11-22T04:10:21;0.10;;;0.10;;
83059;SDS011;72884;44.366;3.426;2023-11-22T04:12:47;0.20;;;0.20;;
83059;SDS011;72884;44.366;3.426;2023-11-22T04:15:13;0.10;;;0.10;;
83059;SDS011;72884;44.366;3.426;2023-11-22T04:17:39;1.45;;;0.30;;
83059;SDS011;72884;44.366;3.426;2023-11-22T04:20:06;1.13;;;0.20;;
83059;SDS011;72884;44.366;3.426;2023-11-22T04:22:39;0.10;;;0.10;;
83059;SDS011;72884;44.366;3.426;2023-11-22T04:25:05;0.10;;;0.10;;
83059;SDS011;72884;44.366;3.426;2023-11-22T04:27:31;0.85;;;0.20;;
83059;SDS011;72884;44.366;3.426;2023-11-22T04:29:57;0.10;;;0.10;;
83059;SDS011;72884;44.366;3.426;2023-11-22T04:32:23;0.13;;;0.13;;
83059;SDS011;72884;44.366;3.426;2023-11-22T04:34:48;0.50;;;0.50;;
83059;SDS011;72884;44.366;3.426;2023-11-22T04:37:14;0.22;;;0.20;;
83059;SDS011;72884;44.366;3.426;2023-11-22T04:39:39;0.10;;;0.10;;
83059;SDS011;72884;44.366;3.426;2023-11-22T04:42:05;0.10;;;0.10;;
83059;SDS011;72884;44.366;3.426;2023-11-22T04:44:30;0.10;;;0.10;;
83059;SDS011;72884;44.366;3.426;2023-11-22T04:46:57;0.20;;;0.20;;
83059;SDS011;72884;44.366;3.426;2023-11-22T04:49:24;0.22;;;0.22;;
83059;SDS011;72884;44.366;3.426;2023-11-22T04:51:50;0.13;;;0.10;;
83059;SDS011;72884;44.366;3.426;2023-11-22T04:54:16;0.20;;;0.10;;
83059;SDS011;72884;44.366;3.426;2023-11-22T04:56:42;0.10;;;0.10;;
83059;SDS011;72884;44.366;3.426;2023-11-22T04:59:07;0.17;;;0.10;;
83059;SDS011;72884;44.366;3.426;2023-11-22T05:01:32;0.10;;;0.10;;
83059;SDS011;72884;44.366;3.426;2023-11-22T05:03:58;0.30;;;0.20;;
83059;SDS011;72884;44.366;3.426;2023-11-22T05:06:24;0.20;;;0.20;;
83059;SDS011;72884;44.366;3.426;2023-11-22T05:08:51;0.20;;;0.20;;
83059;SDS011;72884;44.366;3.426;2023-11-22T05:11:16;0.20;;;0.20;;
83059;SDS011;72884;44.366;3.426;2023-11-22T05:13:42;0.30;;;0.30;;
83059;SDS011;72884;44.366;3.426;2023-11-22T05:16:10;0.10;;;0.10;;
83059;SDS011;72884;44.366;3.426;2023-11-22T05:18:35;1.67;;;0.10;;
83059;SDS011;72884;44.366;3.426;2023-11-22T05:21:01;0.38;;;0.20;;
83059;SDS011;72884;44.366;3.426;2023-11-22T05:23:29;0.10;;;0.10;;
83059;SDS011;72884;44.366;3.426;2023-11-22T05:25:54;0.13;;;0.10;;
83059;SDS011;72884;44.366;3.426;2023-11-22T05:28:21;0.10;;;0.10;;
83059;SDS011;72884;44.366;3.426;2023-11-22T05:30:46;0.10;;;0.10;;
83059;SDS011;72884;44.366;3.426;2023-11-22T05:33:11;0.10;;;0.10;;
83059;SDS011;72884;44.366;3.426;2023-11-22T05:35:37;0.10;;;0.10;;
83059;SDS011;72884;44.366;3.426;2023-11-22T05:38:02;0.20;;;0.20;;
83059;SDS011;72884;44.366;3.426;2023-11-22T05:40:28;0.20;;;0.20;;
83059;SDS011;72884;44.366;3.426;2023-11-22T05:42:53;0.63;;;0.20;;
83059;SDS011;72884;44.366;3.426;2023-11-22T05:45:18;0.20;;;0.20;;
83059;SDS011;72884;44.366;3.426;2023-11-22T05:47:44;0.20;;;0.20;;
83059;SDS011;72884;44.366;3.426;2023-11-22T05:50:09;0.20;;;0.20;;
83059;SDS011;72884;44.366;3.426;2023-11-22T05:52:35;0.85;;;0.30;;
83059;SDS011;72884;44.366;3.426;2023-11-22T05:55:00;0.17;;;0.17;;
83059;SDS011;72884;44.366;3.426;2023-11-22T05:57:29;0.20;;;0.20;;
83059;SDS011;72884;44.366;3.426;2023-11-22T05:59:55;0.10;;;0.10;;
83059;SDS011;72884;44.366;3.426;2023-11-22T06:02:21;0.20;;;0.20;;
83059;SDS011;72884;44.366;3.426;2023-11-22T06:04:46;0.10;;;0.10;;
83059;SDS011;72884;44.366;3.426;2023-11-22T06:07:12;0.30;;;0.15;;
83059;SDS011;72884;44.366;3.426;2023-11-22T06:09:37;0.20;;;0.20;;
83059;SDS011;72884;44.366;3.426;2023-11-22T06:12:03;0.20;;;0.20;;
83059;SDS011;72884;44.366;3.426;2023-11-22T06:14:28;0.30;;;0.17;;
83059;SDS011;72884;44.366;3.426;2023-11-22T06:16:54;0.10;;;0.10;;
83059;SDS011;72884;44.366;3.426;2023-11-22T06:19:19;0.15;;;0.15;;
83059;SDS011;72884;44.366;3.426;2023-11-22T06:21:44;0.10;;;0.10;;
83059;SDS011;72884;44.366;3.426;2023-11-22T06:24:10;0.20;;;0.20;;
83059;SDS011;72884;44.366;3.426;2023-11-22T06:26:41;0.95;;;0.20;;
83059;SDS011;72884;44.366;3.426;2023-11-22T06:29:07;0.15;;;0.10;;
83059;SDS011;72884;44.366;3.426;2023-11-22T06:31:33;0.17;;;0.17;;
83059;SDS011;72884;44.366;3.426;2023-11-22T06:33:59;0.32;;;0.20;;
83059;SDS011;72884;44.366;3.426;2023-11-22T06:39:48;0.25;;;0.10;;
83059;SDS011;72884;44.366;3.426;2023-11-22T06:42:13;0.10;;;0.10;;
83059;SDS011;72884;44.366;3.426;2023-11-22T06:44:39;0.32;;;0.32;;
83059;SDS011;72884;44.366;3.426;2023-11-22T06:47:07;0.10;;;0.10;;
83059;SDS011;72884;44.366;3.426;2023-11-22T06:49:33;0.10;;;0.10;;
83059;SDS011;72884;44.366;3.426;2023-11-22T06:51:59;0.10;;;0.10;;
83059;SDS011;72884;44.366;3.426;2023-11-22T06:54:24;0.20;;;0.20;;
83059;SDS011;72884;44.366;3.426;2023-11-22T06:56:50;0.10;;;0.10;;
83059;SDS011;72884;44.366;3.426;2023-11-22T06:59:16;0.10;;;0.10;;
83059;SDS011;72884;44.366;3.426;2023-11-22T07:01:42;0.20;;;0.20;;
83059;SDS011;72884;44.366;3.426;2023-11-22T07:04:08;8.73;;;0.22;;
83059;SDS011;72884;44.366;3.426;2023-11-22T07:06:33;4.25;;;0.20;;
83059;SDS011;72884;44.366;3.426;2023-11-22T07:08:58;2.08;;;0.30;;
83059;SDS011;72884;44.366;3.426;2023-11-22T07:11:24;4.30;;;0.30;;
83059;SDS011;72884;44.366;3.426;2023-11-22T07:13:51;3.15;;;0.20;;
83059;SDS011;72884;44.366;3.426;2023-11-22T07:16:17;7.68;;;0.35;;
83059;SDS011;72884;44.366;3.426;2023-11-22T07:18:43;7.68;;;0.70;;
83059;SDS011;72884;44.366;3.426;2023-11-22T07:21:10;4.72;;;0.40;;
83059;SDS011;72884;44.366;3.426;2023-11-22T07:23:36;5.25;;;0.40;;
83059;SDS011;72884;44.366;3.426;2023-11-22T07:26:03;13.73;;;0.50;;
83059;SDS011;72884;44.366;3.426;2023-11-22T07:28:28;15.02;;;0.98;;
83059;SDS011;72884;44.366;3.426;2023-11-22T07:30:53;9.02;;;0.90;;
83059;SDS011;72884;44.366;3.426;2023-11-22T07:33:19;3.25;;;0.40;;
83059;SDS011;72884;44.366;3.426;2023-11-22T07:35:45;4.57;;;0.50;;
83059;SDS011;72884;44.366;3.426;2023-11-22T07:38:11;4.80;;;0.70;;
83059;SDS011;72884;44.366;3.426;2023-11-22T07:40:36;2.25;;;0.98;;
83059;SDS011;72884;44.366;3.426;2023-11-22T07:43:02;5.05;;;0.70;;
83059;SDS011;72884;44.366;3.426;2023-11-22T07:45:29;5.97;;;0.98;;
83059;SDS011;72884;44.366;3.426;2023-11-22T07:47:56;4.88;;;0.68;;
83059;SDS011;72884;44.366;3.426;2023-11-22T07:50:24;8.63;;;0.90;;
83059;SDS011;72884;44.366;3.426;2023-11-22T07:52:50;2.72;;;0.90;;
83059;SDS011;72884;44.366;3.426;2023-11-22T07:55:15;8.73;;;0.85;;
83059;SDS011;72884;44.366;3.426;2023-11-22T07:57:43;3.70;;;0.70;;
83059;SDS011;72884;44.366;3.426;2023-11-22T08:00:09;8.48;;;0.70;;
83059;SDS011;72884;44.366;3.426;2023-11-22T08:02:36;4.68;;;0.73;;
83059;SDS011;72884;44.366;3.426;2023-11-22T08:05:04;8.32;;;1.00;;
83059;SDS011;72884;44.366;3.426;2023-11-22T08:07:33;12.73;;;0.80;;
83059;SDS011;72884;44.366;3.426;2023-11-22T08:10:07;5.10;;;0.70;;
83059;SDS011;72884;44.366;3.426;2023-11-22T08:12:44;5.75;;;0.63;;
83059;SDS011;72884;44.366;3.426;2023-11-22T08:15:10;5.18;;;1.17;;
83059;SDS011;72884;44.366;3.426;2023-11-22T08:17:37;3.13;;;0.52;;
83059;SDS011;72884;44.366;3.426;2023-11-22T08:20:04;2.40;;;0.70;;
83059;SDS011;72884;44.366;3.426;2023-11-22T08:22:31;5.57;;;0.60;;
83059;SDS011;72884;44.366;3.426;2023-11-22T08:25:00;3.17;;;0.60;;
83059;SDS011;72884;44.366;3.426;2023-11-22T08:27:29;4.18;;;0.65;;
83059;SDS011;72884;44.366;3.426;2023-11-22T08:29:54;2.72;;;0.80;;
83059;SDS011;72884;44.366;3.426;2023-11-22T08:32:19;2.80;;;0.90;;
83059;SDS011;72884;44.366;3.426;2023-11-22T08:34:48;12.45;;;1.15;;
83059;SDS011;72884;44.366;3.426;2023-11-22T08:37:14;10.43;;;1.30;;
83059;SDS011;72884;44.366;3.426;2023-11-22T08:39:40;9.30;;;1.10;;
83059;SDS011;72884;44.366;3.426;2023-11-22T08:42:05;5.38;;;0.93;;
83059;SDS011;72884;44.366;3.426;2023-11-22T08:44:34;6.85;;;0.80;;
83059;SDS011;72884;44.366;3.426;2023-11-22T08:47:01;6.82;;;1.20;;
83059;SDS011;72884;44.366;3.426;2023-11-22T08:49:28;6.40;;;1.10;;
83059;SDS011;72884;44.366;3.426;2023-11-22T08:51:53;6.95;;;0.90;;
83059;SDS011;72884;44.366;3.426;2023-11-22T08:54:18;4.13;;;0.68;;
83059;SDS011;72884;44.366;3.426;2023-11-22T08:56:44;4.20;;;1.10;;
83059;SDS011;72884;44.366;3.426;2023-11-22T08:59:12;3.00;;;0.80;;
83059;SDS011;72884;44.366;3.426;2023-11-22T09:01:37;10.35;;;0.88;;
83059;SDS011;72884;44.366;3.426;2023-11-22T09:04:03;4.28;;;0.80;;
83059;SDS011;72884;44.366;3.426;2023-11-22T09:06:28;5.35;;;1.27;;
83059;SDS011;72884;44.366;3.426;2023-11-22T09:08:54;3.28;;;0.90;;
83059;SDS011;72884;44.366;3.426;2023-11-22T09:11:20;12.98;;;2.88;;
83059;SDS011;72884;44.366;3.426;2023-11-22T09:13:47;4.93;;;0.88;;
83059;SDS011;72884;44.366;3.426;2023-11-22T09:16:14;5.80;;;1.10;;
83059;SDS011;72884;44.366;3.426;2023-11-22T09:18:41;2.88;;;0.98;;
83059;SDS011;72884;44.366;3.426;2023-11-22T09:21:07;2.35;;;0.70;;
83059;SDS011;72884;44.366;3.426;2023-11-22T09:23:34;3.88;;;0.75;;
83059;SDS011;72884;44.366;3.426;2023-11-22T09:26:01;12.38;;;1.20;;
83059;SDS011;72884;44.366;3.426;2023-11-22T09:28:27;5.88;;;0.82;;
83059;SDS011;72884;44.366;3.426;2023-11-22T09:30:53;6.10;;;0.80;;
83059;SDS011;72884;44.366;3.426;2023-11-22T09:33:26;4.60;;;0.80;;
83059;SDS011;72884;44.366;3.426;2023-11-22T09:35:51;5.25;;;0.90;;
83059;SDS011;72884;44.366;3.426;2023-11-22T09:38:17;13.93;;;1.27;;
83059;SDS011;72884;44.366;3.426;2023-11-22T09:43:08;1.63;;;0.57;;
83059;SDS011;72884;44.366;3.426;2023-11-22T09:45:34;3.60;;;0.70;;
83059;SDS011;72884;44.366;3.426;2023-11-22T09:48:01;2.30;;;0.65;;
83059;SDS011;72884;44.366;3.426;2023-11-22T09:50:35;5.53;;;0.88;;
83059;SDS011;72884;44.366;3.426;2023-11-22T09:53:11;3.50;;;0.60;;
83059;SDS011;72884;44.366;3.426;2023-11-22T09:55:41;2.78;;;0.60;;
83059;SDS011;72884;44.366;3.426;2023-11-22T09:58:08;2.30;;;0.90;;
83059;SDS011;72884;44.366;3.426;2023-11-22T10:00:36;1.70;;;0.60;;
83059;SDS011;72884;44.366;3.426;2023-11-22T10:03:02;2.72;;;0.90;;
83059;SDS011;72884;44.366;3.426;2023-11-22T10:05:28;3.38;;;0.68;;
83059;SDS011;72884;44.366;3.426;2023-11-22T10:07:54;2.53;;;0.73;;
83059;SDS011;72884;44.366;3.426;2023-11-22T10:10:20;3.70;;;0.60;;
83059;SDS011;72884;44.366;3.426;2023-11-22T10:12:48;4.07;;;0.65;;
83059;SDS011;72884;44.366;3.426;2023-11-22T10:15:14;2.00;;;0.55;;
83059;SDS011;72884;44.366;3.426;2023-11-22T10:17:56;1.58;;;0.60;;
83059;SDS011;72884;44.366;3.426;2023-11-22T10:20:38;1.73;;;0.40;;
83059;SDS011;72884;44.366;3.426;2023-11-22T10:23:09;1.67;;;0.60;;
83059;SDS011;72884;44.366;3.426;2023-11-22T10:28:22;1.52;;;0.68;;
83059;SDS011;72884;44.366;3.426;2023-11-22T10:30:51;3.58;;;0.90;;
83059;SDS011;72884;44.366;3.426;2023-11-22T10:33:17;1.02;;;0.60;;
83059;SDS011;72884;44.366;3.426;2023-11-22T10:35:45;2.15;;;0.93;;
83059;SDS011;72884;44.366;3.426;2023-11-22T10:38:13;2.15;;;0.60;;
83059;SDS011;72884;44.366;3.426;2023-11-22T10:40:41;3.25;;;0.82;;
83059;SDS011;72884;44.366;3.426;2023-11-22T10:43:09;0.98;;;0.50;;
83059;SDS011;72884;44.366;3.426;2023-11-22T10:45:36;3.38;;;0.70;;
83059;SDS011;72884;44.366;3.426;2023-11-22T10:48:02;1.45;;;0.50;;
83059;SDS011;72884;44.366;3.426;2023-11-22T10:50:28;1.60;;;0.80;;
83059;SDS011;72884;44.366;3.426;2023-11-22T10:52:53;3.72;;;0.70;;
83059;SDS011;72884;44.366;3.426;2023-11-22T10:55:25;2.83;;;0.60;;
83059;SDS011;72884;44.366;3.426;2023-11-22T10:57:52;5.97;;;0.60;;
83059;SDS011;72884;44.366;3.426;2023-11-22T11:00:20;2.47;;;0.70;;
83059;SDS011;72884;44.366;3.426;2023-11-22T11:02:48;5.22;;;0.75;;
83059;SDS011;72884;44.366;3.426;2023-11-22T11:05:18;3.83;;;0.70;;
83059;SDS011;72884;44.366;3.426;2023-11-22T11:07:54;5.22;;;0.80;;
83059;SDS011;72884;44.366;3.426;2023-11-22T11:10:22;2.65;;;0.57;;
83059;SDS011;72884;44.366;3.426;2023-11-22T11:12:47;8.15;;;0.80;;
83059;SDS011;72884;44.366;3.426;2023-11-22T11:15:14;4.18;;;0.73;;
83059;SDS011;72884;44.366;3.426;2023-11-22T11:17:40;3.20;;;0.50;;
83059;SDS011;72884;44.366;3.426;2023-11-22T11:20:05;4.45;;;0.60;;
83059;SDS011;72884;44.366;3.426;2023-11-22T11:22:34;3.15;;;0.57;;
83059;SDS011;72884;44.366;3.426;2023-11-22T11:25:04;1.13;;;0.43;;
83059;SDS011;72884;44.366;3.426;2023-11-22T11:27:34;1.48;;;0.60;;
83059;SDS011;72884;44.366;3.426;2023-11-22T11:30:49;2.10;;;0.50;;
83059;SDS011;72884;44.366;3.426;2023-11-22T11:32:58;1.58;;;0.60;;
83059;SDS011;72884;44.366;3.426;2023-11-22T11:35:42;2.08;;;0.57;;
83059;SDS011;72884;44.366;3.426;2023-11-22T11:38:15;2.53;;;0.80;;
83059;SDS011;72884;44.366;3.426;2023-11-22T11:40:42;4.85;;;0.52;;
83059;SDS011;72884;44.366;3.426;2023-11-22T11:43:09;4.10;;;0.40;;
83059;SDS011;72884;44.366;3.426;2023-11-22T11:45:39;2.55;;;0.57;;
83059;SDS011;72884;44.366;3.426;2023-11-22T11:48:05;0.73;;;0.60;;
83059;SDS011;72884;44.366;3.426;2023-11-22T11:50:32;2.80;;;0.60;;
83059;SDS011;72884;44.366;3.426;2023-11-22T11:52:57;0.60;;;0.47;;
83059;SDS011;72884;44.366;3.426;2023-11-22T11:55:23;0.75;;;0.50;;
83059;SDS011;72884;44.366;3.426;2023-11-22T11:57:49;1.73;;;0.50;;
83059;SDS011;72884;44.366;3.426;2023-11-22T12:00:14;2.15;;;0.98;;
83059;SDS011;72884;44.366;3.426;2023-11-22T12:02:40;2.33;;;0.50;;
83059;SDS011;72884;44.366;3.426;2023-11-22T12:05:06;4.45;;;0.70;;
83059;SDS011;72884;44.366;3.426;2023-11-22T12:07:35;2.85;;;0.70;;
83059;SDS011;72884;44.366;3.426;2023-11-22T12:10:01;3.45;;;0.50;;
83059;SDS011;72884;44.366;3.426;2023-11-22T12:12:27;2.17;;;0.40;;
83059;SDS011;72884;44.366;3.426;2023-11-22T12:14:55;1.02;;;0.32;;
83059;SDS011;72884;44.366;3.426;2023-11-22T12:17:21;1.05;;;0.47;;
83059;SDS011;72884;44.366;3.426;2023-11-22T12:19:47;0.85;;;0.50;;
83059;SDS011;72884;44.366;3.426;2023-11-22T12:22:13;1.92;;;0.52;;
83059;SDS011;72884;44.366;3.426;2023-11-22T12:24:41;1.92;;;0.50;;
83059;SDS011;72884;44.366;3.426;2023-11-22T12:27:11;1.80;;;0.40;;
83059;SDS011;72884;44.366;3.426;2023-11-22T12:29:37;1.30;;;0.52;;
83059;SDS011;72884;44.366;3.426;2023-11-22T12:32:02;0.95;;;0.60;;
83059;SDS011;72884;44.366;3.426;2023-11-22T12:34:28;1.17;;;0.40;;
83059;SDS011;72884;44.366;3.426;2023-11-22T12:36:55;2.25;;;0.50;;
83059;SDS011;72884;44.366;3.426;2023-11-22T12:39:21;2.70;;;0.60;;
83059;SDS011;72884;44.366;3.426;2023-11-22T12:41:47;0.85;;;0.50;;
83059;SDS011;72884;44.366;3.426;2023-11-22T12:44:15;2.95;;;0.52;;
83059;SDS011;72884;44.366;3.426;2023-11-22T12:46:53;0.55;;;0.43;;
83059;SDS011;72884;44.366;3.426;2023-11-22T12:49:25;1.90;;;0.55;;
83059;SDS011;72884;44.366;3.426;2023-11-22T12:51:52;4.57;;;0.70;;
83059;SDS011;72884;44.366;3.426;2023-11-22T12:54:18;0.93;;;0.50;;
83059;SDS011;72884;44.366;3.426;2023-11-22T12:56:46;1.13;;;0.40;;
83059;SDS011;72884;44.366;3.426;2023-11-22T12:59:14;1.20;;;0.30;;
83059;SDS011;72884;44.366;3.426;2023-11-22T13:01:39;0.30;;;0.30;;
83059;SDS011;72884;44.366;3.426;2023-11-22T13:04:05;1.25;;;0.50;;
83059;SDS011;72884;44.366;3.426;2023-11-22T13:06:31;1.20;;;0.50;;
83059;SDS011;72884;44.366;3.426;2023-11-22T13:08:56;2.88;;;0.60;;
83059;SDS011;72884;44.366;3.426;2023-11-22T13:11:22;1.77;;;0.60;;
83059;SDS011;72884;44.366;3.426;2023-11-22T13:13:47;0.63;;;0.38;;
83059;SDS011;72884;44.366;3.426;2023-11-22T13:16:13;0.63;;;0.50;;
83059;SDS011;72884;44.366;3.426;2023-11-22T13:18:41;0.63;;;0.40;;
83059;SDS011;72884;44.366;3.426;2023-11-22T13:21:06;1.77;;;0.50;;
83059;SDS011;72884;44.366;3.426;2023-11-22T13:23:31;1.40;;;0.60;;
83059;SDS011;72884;44.366;3.426;2023-11-22T13:25:58;1.52;;;0.40;;
83059;SDS011;72884;44.366;3.426;2023-11-22T13:28:23;1.00;;;0.55;;
83059;SDS011;72884;44.366;3.426;2023-11-22T13:30:50;1.85;;;0.57;;
83059;SDS011;72884;44.366;3.426;2023-11-22T13:33:19;0.38;;;0.38;;
83059;SDS011;72884;44.366;3.426;2023-11-22T13:35:44;1.77;;;0.40;;
83059;SDS011;72884;44.366;3.426;2023-11-22T13:38:10;1.73;;;0.40;;
83059;SDS011;72884;44.366;3.426;2023-11-22T13:40:38;1.35;;;0.50;;
83059;SDS011;72884;44.366;3.426;2023-11-22T13:43:05;0.47;;;0.43;;
83059;SDS011;72884;44.366;3.426;2023-11-22T13:45:31;0.57;;;0.30;;
83059;SDS011;72884;44.366;3.426;2023-11-22T13:47:56;0.60;;;0.40;;
83059;SDS011;72884;44.366;3.426;2023-11-22T13:50:25;3.30;;;0.45;;
83059;SDS011;72884;44.366;3.426;2023-11-22T13:52:52;1.27;;;0.30;;
83059;SDS011;72884;44.366;3.426;2023-11-22T13:55:18;1.90;;;0.47;;
83059;SDS011;72884;44.366;3.426;2023-11-22T13:57:50;1.35;;;0.50;;
83059;SDS011;72884;44.366;3.426;2023-11-22T14:00:16;0.80;;;0.40;;
83059;SDS011;72884;44.366;3.426;2023-11-22T14:02:51;0.55;;;0.30;;
83059;SDS011;72884;44.366;3.426;2023-11-22T14:05:18;0.30;;;0.30;;
83059;SDS011;72884;44.366;3.426;2023-11-22T14:07:44;0.38;;;0.25;;
83059;SDS011;72884;44.366;3.426;2023-11-22T14:10:09;0.40;;;0.40;;
83059;SDS011;72884;44.366;3.426;2023-11-22T14:12:36;1.35;;;0.50;;
83059;SDS011;72884;44.366;3.426;2023-11-22T14:15:02;0.45;;;0.30;;
83059;SDS011;72884;44.366;3.426;2023-11-22T14:17:29;0.30;;;0.30;;
83059;SDS011;72884;44.366;3.426;2023-11-22T14:19:55;0.40;;;0.30;;
83059;SDS011;72884;44.366;3.426;2023-11-22T14:22:21;0.47;;;0.30;;
83059;SDS011;72884;44.366;3.426;2023-11-22T14:24:47;0.82;;;0.40;;
83059;SDS011;72884;44.366;3.426;2023-11-22T14:27:14;0.70;;;0.40;;
83059;SDS011;72884;44.366;3.426;2023-11-22T14:29:39;1.05;;;0.40;;
83059;SDS011;72884;44.366;3.426;2023-11-22T14:32:05;0.93;;;0.30;;
83059;SDS011;72884;44.366;3.426;2023-11-22T14:34:32;0.40;;;0.40;;
83059;SDS011;72884;44.366;3.426;2023-11-22T14:36:57;1.85;;;0.40;;
83059;SDS011;72884;44.366;3.426;2023-11-22T14:39:23;0.30;;;0.30;;
83059;SDS011;72884;44.366;3.426;2023-11-22T14:41:49;0.30;;;0.30;;
83059;SDS011;72884;44.366;3.426;2023-11-22T14:44:16;0.30;;;0.30;;
83059;SDS011;72884;44.366;3.426;2023-11-22T14:46:41;0.35;;;0.30;;
83059;SDS011;72884;44.366;3.426;2023-11-22T14:49:07;0.30;;;0.30;;
83059;SDS011;72884;44.366;3.426;2023-11-22T14:51:33;0.47;;;0.30;;
83059;SDS011;72884;44.366;3.426;2023-11-22T14:53:58;0.40;;;0.40;;